Time;durP1;ratioP1;P1;durP2;ratioP2;P2;SDS_P1;SDS_P2;PMS_P1;PMS_P2;Temp;Humidity;BMP_temperature;BMP_pressure;BME280_temperature;BME280_humidity;BME280_pressure;Samples;Min_cycle;Max_cycle;Signal;HPM_P1;HPM_P2
2023/08/09 00:00:16;;;;;;;1.00;0.90;;;17.20;97.90;;;17.47;62.72;95201.75;5077639;28;20452;-56
2023/08/09 00:02:43;;;;;;;2.50;0.90;;;17.20;98.00;;;17.51;62.88;95206.56;5072698;28;20443;-58
2023/08/09 00:05:10;;;;;;;2.77;1.00;;;17.20;98.00;;;17.50;62.53;95207.56;5074920;28;20459;-60
2023/08/09 00:07:37;;;;;;;3.63;0.80;;;17.10;97.90;;;17.49;62.86;95205.91;5080245;28;20461;-57
2023/08/09 00:10:05;;;;;;;1.43;1.00;;;17.10;97.90;;;17.47;63.16;95202.59;5074526;28;20831;-60
2023/08/09 00:12:33;;;;;;;0.80;0.70;;;17.10;97.90;;;17.45;62.42;95199.28;5080206;28;20537;-59
2023/08/09 00:15:02;;;;;;;8.63;1.00;;;17.10;97.70;;;17.43;62.96;95195.97;5079920;28;21057;-59
2023/08/09 00:17:31;;;;;;;1.27;1.17;;;17.10;97.90;;;17.42;62.65;95199.63;5079501;28;20490;-60
2023/08/09 00:19:58;;;;;;;1.10;0.87;;;17.00;97.90;;;17.41;62.87;95203.28;5077301;28;20457;-60
2023/08/09 00:22:26;;;;;;;1.03;0.93;;;17.00;97.90;;;17.40;62.81;95193.66;5077707;28;20473;-61
2023/08/09 00:24:53;;;;;;;1.63;0.80;;;17.00;97.90;;;17.38;63.01;95198.31;5075651;28;20458;-57
2023/08/09 00:27:20;;;;;;;2.60;0.97;;;17.00;98.20;;;17.35;62.92;95194.19;5075766;28;20480;-57
2023/08/09 00:29:48;;;;;;;0.97;0.80;;;17.00;98.20;;;17.36;63.35;95201.16;5073588;28;20980;-60
2023/08/09 00:32:15;;;;;;;1.10;0.70;;;17.00;98.50;;;17.34;63.43;95203.16;5080603;28;20562;-61
2023/08/09 00:34:44;;;;;;;1.63;1.00;;;17.00;98.40;;;17.32;63.39;95206.97;5076117;28;20459;-61
2023/08/09 00:37:11;;;;;;;0.90;0.80;;;17.00;98.40;;;17.30;63.13;95198.34;5080849;28;20554;-56
2023/08/09 00:39:39;;;;;;;2.47;0.87;;;16.90;98.40;;;17.28;63.25;95203.84;5079367;28;20457;-61
2023/08/09 00:42:06;;;;;;;0.90;0.70;;;16.90;98.40;;;17.27;63.76;95194.19;5074446;28;20473;-56
2023/08/09 00:44:33;;;;;;;1.63;0.80;;;16.90;98.50;;;17.28;63.52;95189.75;5077009;28;20445;-54
2023/08/09 00:47:00;;;;;;;2.53;0.97;;;16.90;98.80;;;17.27;63.74;95201.38;5076719;28;21078;-58
2023/08/09 00:49:28;;;;;;;1.10;1.00;;;16.90;98.80;;;17.25;63.26;95198.06;5073705;28;20451;-59
2023/08/09 00:51:56;;;;;;;1.10;1.00;;;16.90;98.60;;;17.24;62.81;95193.72;5080526;28;20818;-56
2023/08/09 00:54:23;;;;;;;2.00;0.90;;;16.90;98.30;;;17.20;62.99;95196.72;5076945;28;20458;-57
2023/08/09 00:56:51;;;;;;;1.10;0.90;;;16.80;98.20;;;17.19;63.07;95192.41;5078086;28;20662;-59
2023/08/09 00:59:18;;;;;;;1.63;1.17;;;16.80;98.30;;;17.19;63.43;95199.56;5076771;28;20454;-59
2023/08/09 01:01:45;;;;;;;2.93;1.17;;;16.80;98.70;;;17.17;63.67;95191.75;5075601;28;20983;-57
2023/08/09 01:04:12;;;;;;;1.00;0.90;;;16.80;98.70;;;17.18;63.36;95197.91;5081137;28;20450;-60
2023/08/09 01:06:44;;;;;;;1.30;1.10;;;16.80;98.50;;;17.14;63.48;95194.78;5081608;28;20576;-58
2023/08/09 01:09:18;;;;;;;2.80;1.13;;;16.80;98.40;;;17.13;63.35;95190.44;5079371;28;20446;-60
2023/08/09 01:11:49;;;;;;;1.70;1.60;;;16.80;98.50;;;17.10;62.89;95185.50;5080406;28;20461;-56
2023/08/09 01:14:17;;;;;;;3.17;1.20;;;16.70;98.40;;;17.08;63.11;95191.97;5081671;28;20498;-57
2023/08/09 01:16:44;;;;;;;1.10;1.00;;;16.70;98.20;;;17.03;63.25;95185.34;5079640;28;20474;-57
2023/08/09 01:19:20;;;;;;;1.20;0.90;;;16.70;98.40;;;17.00;62.91;95191.00;5081825;28;20507;-57
2023/08/09 01:21:47;;;;;;;1.20;1.10;;;16.70;98.40;;;16.96;63.26;95188.84;5079504;28;20995;-60
2023/08/09 01:24:16;;;;;;;1.20;1.10;;;16.60;98.30;;;16.93;63.05;95191.84;5083787;28;20457;-57
2023/08/09 01:26:44;;;;;;;7.53;1.47;;;16.60;98.50;;;16.90;63.36;95193.03;5081309;28;20500;-60
2023/08/09 01:29:11;;;;;;;8.77;1.30;;;16.60;98.60;;;16.86;63.08;95186.41;5084131;28;20477;-56
2023/08/09 01:31:38;;;;;;;1.30;1.13;;;16.50;98.30;;;16.82;63.42;95188.56;5076755;28;20485;-62
2023/08/09 01:34:06;;;;;;;1.20;1.10;;;16.50;98.60;;;16.81;63.69;95194.84;5079075;28;20467;-58
2023/08/09 01:36:34;;;;;;;1.67;1.17;;;16.50;98.70;;;16.79;63.60;95194.22;5080919;28;20564;-60
2023/08/09 01:39:07;;;;;;;1.03;0.93;;;16.50;98.60;;;16.76;63.79;95191.88;5079799;28;21010;-57
2023/08/09 01:41:36;;;;;;;8.73;1.13;;;16.40;98.60;;;16.74;63.96;95185.91;5082829;28;20519;-61
2023/08/09 01:44:05;;;;;;;1.50;1.10;;;16.40;98.70;;;16.73;63.82;95189.56;5080595;28;20455;-58
2023/08/09 01:46:32;;;;;;;2.03;1.10;;;16.40;98.70;;;16.71;63.62;95191.56;5084360;28;20477;-62
2023/08/09 01:49:10;;;;;;;1.10;1.00;;;16.40;98.90;;;16.70;63.69;95187.25;5080634;28;20467;-61
2023/08/09 01:51:38;;;;;;;1.10;0.90;;;16.40;98.90;;;16.70;63.59;95186.41;5080228;28;20511;-57
2023/08/09 01:54:07;;;;;;;2.33;2.10;;;16.30;98.80;;;16.65;63.47;95189.56;5079820;28;20461;-60
2023/08/09 01:56:35;;;;;;;2.60;1.20;;;16.30;98.70;;;16.62;63.79;95188.09;5082552;28;20517;-60
2023/08/09 01:59:04;;;;;;;1.27;1.00;;;16.30;98.90;;;16.60;63.82;95186.59;5077967;28;20487;-61
2023/08/09 02:01:32;;;;;;;1.23;1.03;;;16.30;98.90;;;16.58;63.95;95185.97;5078357;28;20470;-60
2023/08/09 02:03:59;;;;;;;1.20;0.93;;;16.30;98.90;;;16.56;63.68;95193.25;5080569;28;20465;-60
2023/08/09 02:06:27;;;;;;;2.30;1.10;;;16.20;98.90;;;16.53;63.93;95193.56;5077486;28;20501;-61
2023/08/09 02:08:54;;;;;;;1.40;1.30;;;16.20;98.90;;;16.49;64.23;95193.91;5077561;28;20489;-61
2023/08/09 02:11:22;;;;;;;1.10;1.00;;;16.20;99.10;;;16.48;64.35;95191.44;5080554;28;20572;-60
2023/08/09 02:13:50;;;;;;;2.60;1.47;;;16.20;99.20;;;16.47;64.35;95190.59;5080422;28;20462;-57
2023/08/09 02:16:18;;;;;;;1.37;1.17;;;16.10;99.20;;;16.44;64.11;95190.94;5076895;28;21082;-60
2023/08/09 02:18:45;;;;;;;0.87;0.70;;;16.10;99.20;;;16.42;64.58;95198.25;5080477;28;20486;-61
2023/08/09 02:21:12;;;;;;;3.30;1.33;;;16.10;99.30;;;16.41;64.56;95193.94;5078045;28;20479;-57
2023/08/09 02:23:39;;;;;;;2.50;1.27;;;16.10;99.40;;;16.41;64.58;95190.47;5080392;28;20463;-60
2023/08/09 02:26:08;;;;;;;8.57;1.13;;;16.10;99.40;;;16.39;64.55;95193.28;5078411;28;20592;-59
2023/08/09 02:28:35;;;;;;;1.93;1.80;;;16.10;99.50;;;16.39;64.79;95195.94;5079999;28;20595;-60
2023/08/09 02:31:04;;;;;;;2.40;1.00;;;16.10;99.60;;;16.38;64.73;95188.97;5079591;28;20479;-56
2023/08/09 02:33:31;;;;;;;1.40;1.30;;;16.10;99.50;;;16.37;64.59;95200.56;5076515;28;20475;-58
2023/08/09 02:36:00;;;;;;;2.50;1.10;;;16.10;99.60;;;16.37;64.61;95205.06;5079473;28;20474;-56
2023/08/09 02:38:28;;;;;;;1.30;0.80;;;16.10;99.50;;;16.37;64.91;95205.88;5081588;28;20490;-60
2023/08/09 02:40:55;;;;;;;1.50;1.40;;;16.00;99.60;;;16.35;64.54;95210.53;5079597;28;20552;-60
2023/08/09 02:43:24;;;;;;;4.27;1.00;;;16.00;99.50;;;16.34;64.89;95210.69;5080554;28;20489;-60
2023/08/09 02:45:51;;;;;;;2.60;0.80;;;16.00;99.60;;;16.33;64.83;95209.88;5075960;28;20486;-57
2023/08/09 02:48:20;;;;;;;1.40;1.20;;;16.00;99.80;;;16.33;64.57;95212.53;5081985;28;20446;-60
2023/08/09 02:50:47;;;;;;;1.50;1.40;;;16.00;99.80;;;16.33;65.16;95217.00;5083024;28;20925;-61
2023/08/09 02:53:16;;;;;;;1.20;1.00;;;16.00;99.90;;;16.32;64.78;95213.53;5083097;28;20454;-58
2023/08/09 02:55:44;;;;;;;1.63;0.93;;;16.00;99.80;;;16.30;64.82;95215.53;5076177;28;20569;-61
2023/08/09 02:58:11;;;;;;;1.67;1.17;;;16.00;99.80;;;16.31;65.04;95214.50;5074637;28;21021;-61
2023/08/09 03:00:38;;;;;;;1.60;1.40;;;16.00;99.90;;;16.30;64.77;95216.34;5084402;28;20477;-58
2023/08/09 03:03:06;;;;;;;5.03;1.70;;;16.00;99.80;;;16.30;64.76;95220.84;5070414;28;20806;-61
2023/08/09 03:05:35;;;;;;;2.37;1.40;;;16.00;99.70;;;16.28;64.57;95212.19;5076845;28;20898;-61
2023/08/09 03:08:02;;;;;;;3.23;1.40;;;16.00;99.70;;;16.25;65.01;95218.69;5081629;28;21058;-59
2023/08/09 03:10:30;;;;;;;1.87;1.10;;;15.90;99.80;;;16.25;65.03;95212.53;5078319;28;20863;-61
2023/08/09 03:12:57;;;;;;;3.27;1.40;;;15.90;99.90;;;16.25;65.00;95228.44;5074123;28;20848;-58
2023/08/09 03:15:25;;;;;;;2.40;1.10;;;15.90;99.90;;;16.23;65.06;95218.00;5075276;28;20476;-60
2023/08/09 03:17:52;;;;;;;9.67;2.13;;;15.90;99.90;;;16.21;64.94;95221.81;5077683;28;21099;-61
2023/08/09 03:20:19;;;;;;;7.13;1.60;;;15.90;99.90;;;16.19;64.96;95221.16;5076406;28;20989;-60
2023/08/09 03:22:48;;;;;;;3.83;1.50;;;15.90;99.90;;;16.18;65.07;95224.81;5076228;28;20454;-60
2023/08/09 03:25:16;;;;;;;3.07;1.77;;;15.90;99.90;;;16.16;65.48;95226.78;5079985;28;20450;-60
2023/08/09 03:27:43;;;;;;;4.23;2.00;;;15.90;99.90;;;16.18;65.33;95230.13;5076757;28;20455;-62
2023/08/09 03:30:12;;;;;;;10.33;2.50;;;15.90;99.90;;;16.17;65.22;95233.75;5081325;28;20513;-57
2023/08/09 03:32:39;;;;;;;11.80;1.80;;;15.80;99.90;;;16.16;65.22;95240.06;5081340;28;20473;-57
2023/08/09 03:35:09;;;;;;;4.40;2.67;;;15.80;99.90;;;16.16;65.59;95238.25;5079238;28;20986;-57
2023/08/09 03:37:36;;;;;;;5.23;2.50;;;15.80;99.90;;;16.17;65.67;95233.75;5077571;28;20832;-61
2023/08/09 03:40:09;;;;;;;4.67;2.00;;;15.80;99.90;;;16.17;65.39;95250.50;5079562;28;20489;-61
2023/08/09 03:42:36;;;;;;;3.90;1.67;;;15.80;99.90;;;16.18;65.15;95251.34;5074670;28;20455;-57
2023/08/09 03:45:03;;;;;;;3.00;1.73;;;15.80;99.90;;;16.18;65.15;95246.03;5074849;28;21058;-57
2023/08/09 03:47:31;;;;;;;2.13;1.30;;;15.90;99.90;;;16.16;64.96;95245.34;5084462;28;20511;-58
2023/08/09 03:49:58;;;;;;;8.73;1.40;;;15.80;99.90;;;16.16;64.94;95245.34;5077077;28;21023;-60
2023/08/09 03:52:25;;;;;;;2.17;1.70;;;15.80;99.90;;;16.16;64.94;95248.00;5078785;28;20478;-57
2023/08/09 03:54:55;;;;;;;2.57;2.37;;;15.80;99.90;;;16.14;64.73;95248.19;5078904;28;20477;-58
2023/08/09 03:57:23;;;;;;;3.40;2.20;;;15.80;99.70;;;16.11;64.29;95248.50;5077870;28;20502;-58
2023/08/09 03:59:50;;;;;;;3.87;2.60;;;15.80;99.40;;;16.07;64.42;95253.31;5077587;28;20485;-63
2023/08/09 04:02:18;;;;;;;2.00;1.50;;;15.80;99.50;;;16.02;64.22;95250.34;5076238;28;20523;-58
2023/08/09 04:04:45;;;;;;;2.50;1.80;;;15.70;99.50;;;16.00;64.41;95247.00;5079162;28;20517;-61
2023/08/09 04:07:13;;;;;;;1.97;1.43;;;15.70;99.40;;;15.99;64.98;95249.81;5074526;28;20470;-60
2023/08/09 04:09:41;;;;;;;9.93;1.73;;;15.70;99.90;;;16.00;64.99;95249.66;5079865;28;20462;-59
2023/08/09 04:12:09;;;;;;;2.93;1.73;;;15.70;99.90;;;16.02;64.78;95250.34;5075183;28;20481;-61
2023/08/09 04:14:37;;;;;;;2.30;1.40;;;15.70;99.90;;;16.05;64.85;95243.84;5082569;28;20450;-58
2023/08/09 04:17:06;;;;;;;1.43;1.33;;;15.70;99.90;;;16.11;64.94;95253.81;5076977;28;20475;-61
2023/08/09 04:19:33;;;;;;;13.33;2.00;;;15.80;99.90;;;16.19;65.31;95255.66;5076646;28;20485;-60
2023/08/09 04:22:01;;;;;;;6.40;1.93;;;15.80;99.90;;;16.25;64.81;95257.63;5077176;28;20467;-59
2023/08/09 04:24:28;;;;;;;3.70;1.73;;;15.90;99.90;;;16.29;64.39;95253.66;5077399;28;20454;-60
2023/08/09 04:26:55;;;;;;;9.23;1.90;;;16.00;99.80;;;16.33;63.97;95267.44;5077245;28;20560;-61
2023/08/09 04:29:23;;;;;;;8.17;2.30;;;16.00;99.40;;;16.35;64.04;95260.97;5077219;28;20451;-59
2023/08/09 04:31:51;;;;;;;2.20;1.77;;;16.00;99.50;;;16.39;64.08;95261.47;5075754;28;20479;-59
2023/08/09 04:34:19;;;;;;;3.10;1.70;;;16.00;99.80;;;16.43;64.08;95268.09;5075704;28;20469;-62
2023/08/09 04:36:46;;;;;;;4.10;2.00;;;16.10;99.60;;;16.45;63.87;95264.31;5081292;28;20999;-59
2023/08/09 04:39:14;;;;;;;2.30;1.93;;;16.10;99.20;;;16.48;63.65;95265.78;5083643;28;20497;-60
2023/08/09 04:41:41;;;;;;;3.63;1.70;;;16.10;99.20;;;16.51;63.51;95260.13;5078414;28;20482;-58
2023/08/09 04:44:08;;;;;;;4.60;2.50;;;16.20;99.00;;;16.53;63.40;95268.78;5081291;28;20481;-60
2023/08/09 04:46:35;;;;;;;4.90;2.20;;;16.20;99.20;;;16.59;63.60;95272.56;5077784;28;21361;-57
2023/08/09 04:49:04;;;;;;;2.37;1.57;;;16.20;99.20;;;16.63;63.67;95276.56;5081664;28;20907;-60
2023/08/09 04:51:31;;;;;;;2.40;1.90;;;16.30;99.10;;;16.65;63.32;95266.59;5075944;28;20558;-61
2023/08/09 04:53:59;;;;;;;2.40;2.20;;;16.30;99.10;;;16.67;63.14;95264.63;5080990;28;20453;-60
2023/08/09 04:56:26;;;;;;;4.93;2.40;;;16.30;98.90;;;16.66;63.24;95263.78;5086834;28;20601;-56
2023/08/09 04:58:53;;;;;;;3.43;2.10;;;16.30;98.70;;;16.66;63.25;95269.09;5084192;28;20546;-57
2023/08/09 05:01:20;;;;;;;24.87;2.80;;;16.30;98.80;;;16.66;63.40;95268.25;5075923;28;20479;-58
2023/08/09 05:03:48;;;;;;;6.90;2.43;;;16.30;99.00;;;16.67;63.55;95272.59;5074138;28;20458;-57
2023/08/09 05:06:17;;;;;;;4.03;2.90;;;16.30;99.00;;;16.67;63.41;95276.06;5075215;28;20473;-56
2023/08/09 05:08:49;;;;;;;5.80;2.77;;;16.30;99.00;;;16.66;63.29;95277.06;5075482;28;20485;-59
2023/08/09 05:11:16;;;;;;;2.80;1.70;;;16.30;99.00;;;16.71;63.72;95281.88;5076744;28;20581;-59
2023/08/09 05:13:43;;;;;;;2.07;1.97;;;16.30;99.10;;;16.77;63.05;95277.72;5075539;28;20467;-59
2023/08/09 05:16:10;;;;;;;5.10;2.20;;;16.40;98.90;;;16.81;63.47;95281.69;5079802;28;20470;-58
2023/08/09 05:18:39;;;;;;;6.00;1.53;;;16.40;98.90;;;16.84;63.09;95282.19;5081970;28;20489;-61
2023/08/09 05:21:06;;;;;;;4.10;1.63;;;16.50;99.00;;;16.88;63.92;95287.19;5079558;28;20971;-56
2023/08/09 05:23:35;;;;;;;16.30;2.53;;;16.50;99.40;;;16.95;63.79;95280.22;5073959;28;20544;-59
2023/08/09 05:26:02;;;;;;;14.80;2.40;;;16.60;99.30;;;17.00;64.02;95280.53;5078006;28;20474;-60
2023/08/09 05:28:29;;;;;;;2.20;2.00;;;16.60;99.40;;;17.03;63.26;95275.69;5083382;28;20462;-61
2023/08/09 05:30:57;;;;;;;3.37;2.27;;;16.70;99.00;;;17.12;62.99;95284.50;5077487;28;20482;-57
2023/08/09 05:33:24;;;;;;;6.70;2.53;;;16.70;99.00;;;17.23;63.59;95282.44;5081496;28;20469;-59
2023/08/09 05:35:51;;;;;;;3.17;2.93;;;16.80;99.30;;;17.37;63.39;95284.41;5078274;28;20959;-59
2023/08/09 05:38:18;;;;;;;7.17;1.87;;;16.90;99.20;;;17.53;63.35;95284.34;5081922;28;20485;-57
2023/08/09 05:40:47;;;;;;;4.47;2.10;;;17.10;99.20;;;17.72;62.84;95284.91;5080368;28;20474;-60
2023/08/09 05:43:14;;;;;;;2.80;2.60;;;17.20;99.00;;;17.92;62.82;95291.53;5080709;28;20473;-58
2023/08/09 05:45:42;;;;;;;3.00;2.77;;;17.40;98.90;;;18.14;62.40;95294.38;5077672;28;20481;-57
2023/08/09 05:48:09;;;;;;;2.40;2.20;;;17.60;98.70;;;18.35;61.89;95282.25;5080580;28;20451;-56
2023/08/09 05:50:36;;;;;;;3.10;2.70;;;17.80;98.20;;;18.53;61.20;95282.78;5079503;28;20478;-60
2023/08/09 05:53:04;;;;;;;12.43;2.43;;;18.00;98.10;;;18.72;61.14;95286.78;5080653;28;20636;-59
2023/08/09 05:55:31;;;;;;;9.07;2.70;;;18.20;98.00;;;18.90;60.17;95288.31;5078654;28;20470;-58
2023/08/09 05:58:00;;;;;;;4.27;3.60;;;18.40;97.50;;;19.06;60.07;95279.34;5080430;28;20450;-59
2023/08/09 06:00:27;;;;;;;13.43;3.50;;;18.50;97.20;;;19.20;59.44;95283.84;5080818;28;20919;-57
2023/08/09 06:02:54;;;;;;;3.23;2.90;;;18.70;96.90;;;19.36;59.53;95285.50;5081245;28;20461;-57
2023/08/09 06:05:23;;;;;;;4.43;4.03;;;18.80;96.90;;;19.52;59.27;95282.66;5076521;28;20521;-60
2023/08/09 06:07:50;;;;;;;9.40;3.83;;;19.00;96.80;;;19.70;58.98;95284.94;5082505;28;20473;-60
2023/08/09 06:10:19;;;;;;;14.37;3.53;;;19.20;96.20;;;19.84;58.68;95279.78;5076603;28;20454;-60
2023/08/09 06:12:46;;;;;;;6.53;3.27;;;19.30;96.10;;;19.99;58.30;95277.91;5079428;28;20873;-61
2023/08/09 06:15:15;;;;;;;3.47;3.17;;;19.40;95.60;;;20.13;57.68;95289.56;5075534;28;20947;-60
2023/08/09 06:17:42;;;;;;;4.23;3.40;;;19.60;95.50;;;20.29;57.68;95283.16;5079577;28;20876;-60
2023/08/09 06:20:13;;;;;;;5.33;3.10;;;19.80;95.00;;;20.43;57.46;95276.09;5077535;28;20497;-59
2023/08/09 06:22:41;;;;;;;3.20;2.83;;;19.90;94.70;;;20.57;56.82;95264.53;5077753;28;20441;-60
2023/08/09 06:25:09;;;;;;;5.50;3.00;;;20.00;94.40;;;20.72;56.82;95268.97;5078395;28;20541;-57
2023/08/09 06:27:36;;;;;;;6.10;3.37;;;20.10;94.30;;;20.87;56.52;95268.91;5079122;28;20446;-57
2023/08/09 06:30:04;;;;;;;4.10;3.13;;;20.30;94.00;;;21.05;56.43;95271.06;5079859;28;20527;-60
2023/08/09 06:32:33;;;;;;;4.47;4.17;;;20.40;94.10;;;21.20;55.92;95268.31;5077105;28;20442;-59
2023/08/09 06:35:01;;;;;;;3.30;2.53;;;20.60;93.60;;;21.26;55.08;95271.00;5080765;28;20456;-59
2023/08/09 06:37:29;;;;;;;4.90;4.00;;;20.70;92.50;;;21.38;55.07;95275.81;5075811;28;20508;-61
2023/08/09 06:39:56;;;;;;;6.23;3.47;;;20.80;92.60;;;21.54;55.09;95277.38;5077965;28;20573;-60
2023/08/09 06:42:23;;;;;;;3.03;2.70;;;20.90;92.50;;;21.69;54.33;95264.69;5079300;28;20505;-60
2023/08/09 06:44:50;;;;;;;14.40;3.23;;;21.10;92.10;;;21.89;53.92;95263.94;5078617;28;20495;-60
2023/08/09 06:47:17;;;;;;;3.00;2.80;;;21.20;91.50;;;22.03;52.70;95268.31;5078814;28;20474;-61
2023/08/09 06:49:46;;;;;;;3.37;2.20;;;21.40;90.50;;;22.18;51.97;95268.97;5076250;28;20961;-58
2023/08/09 06:52:13;;;;;;;3.53;2.73;;;21.60;89.70;;;22.34;52.21;95258.94;5081302;28;20461;-60
2023/08/09 06:54:40;;;;;;;3.20;3.00;;;21.70;89.10;;;22.47;52.02;95252.78;5079515;28;20446;-60
2023/08/09 06:57:08;;;;;;;3.63;2.90;;;21.90;89.10;;;22.61;52.46;95256.28;5079808;28;20846;-60
2023/08/09 06:59:35;;;;;;;2.90;2.70;;;22.00;88.50;;;22.72;52.12;95255.66;5076114;28;20486;-60
2023/08/09 07:02:02;;;;;;;2.93;2.70;;;22.10;88.40;;;22.82;51.88;95248.03;5078206;28;20473;-57
2023/08/09 07:04:29;;;;;;;5.87;2.80;;;22.20;87.80;;;22.81;51.44;95243.69;5078138;28;20934;-61
2023/08/09 07:06:58;;;;;;;2.37;2.27;;;22.20;86.20;;;22.87;50.53;95240.19;5079780;28;20474;-58
2023/08/09 07:09:25;;;;;;;4.23;2.80;;;22.30;85.30;;;23.00;50.35;95246.56;5078377;28;20454;-59
2023/08/09 07:11:52;;;;;;;10.93;3.67;;;22.40;85.30;;;23.13;50.37;95246.59;5079454;28;20944;-60
2023/08/09 07:14:21;;;;;;;3.70;3.50;;;22.50;84.70;;;23.28;50.07;95238.28;5080961;28;20453;-60
2023/08/09 07:16:51;;;;;;;3.20;2.57;;;22.70;83.70;;;23.38;50.04;95251.31;5080305;28;20831;-59
2023/08/09 07:19:19;;;;;;;3.67;3.10;;;22.80;83.60;;;23.42;49.64;95245.31;5076032;28;20477;-61
2023/08/09 07:21:46;;;;;;;3.77;3.37;;;22.80;82.00;;;23.45;48.79;95241.34;5081244;28;20546;-59
2023/08/09 07:24:14;;;;;;;3.67;2.80;;;22.90;81.30;;;23.56;48.72;95240.72;5073581;28;20529;-60
2023/08/09 07:26:42;;;;;;;4.07;3.23;;;22.90;81.30;;;23.66;48.78;95240.25;5077486;28;20481;-62
2023/08/09 07:29:09;;;;;;;7.03;2.97;;;23.00;81.10;;;23.70;48.89;95241.50;5078946;28;20922;-58
2023/08/09 07:31:36;;;;;;;6.73;3.40;;;23.10;80.60;;;23.71;48.99;95236.94;5076006;28;20593;-60
2023/08/09 07:34:04;;;;;;;5.60;4.03;;;23.10;79.60;;;23.74;47.96;95231.94;5078922;28;20552;-60
2023/08/09 07:36:31;;;;;;;3.57;3.10;;;23.10;79.20;;;23.84;48.22;95231.53;5076413;28;20558;-59
2023/08/09 07:38:59;;;;;;;3.40;2.80;;;23.20;79.40;;;23.86;47.70;95234.84;5079725;28;20482;-60
2023/08/09 07:41:27;;;;;;;5.07;2.80;;;23.30;78.30;;;23.89;48.28;95229.03;5076189;28;20498;-60
2023/08/09 07:43:54;;;;;;;4.00;3.57;;;23.30;77.70;;;24.07;47.77;95232.88;5078538;28;20481;-59
2023/08/09 07:46:22;;;;;;;3.87;3.57;;;23.40;76.90;;;24.23;47.40;95235.06;5075614;28;20466;-59
2023/08/09 07:48:51;;;;;;;5.83;4.00;;;23.60;76.50;;;24.32;47.09;95233.75;5076741;28;20450;-56
2023/08/09 07:51:19;;;;;;;3.17;2.93;;;23.70;76.00;;;24.32;46.31;95225.69;5078516;28;20552;-59
2023/08/09 07:53:46;;;;;;;5.93;3.90;;;23.80;75.00;;;24.31;46.45;95220.53;5076466;28;20446;-57
2023/08/09 07:56:14;;;;;;;3.37;3.17;;;23.80;74.60;;;24.31;46.17;95220.53;5080618;28;20474;-60
2023/08/09 07:58:43;;;;;;;5.23;3.73;;;23.80;74.80;;;24.44;46.31;95216.91;5077745;28;20451;-59
2023/08/09 08:01:10;;;;;;;3.30;3.10;;;23.80;75.10;;;24.64;46.28;95217.63;5075439;28;20624;-59
2023/08/09 08:03:37;;;;;;;17.73;4.60;;;24.00;74.50;;;24.78;45.97;95212.94;5076963;28;20446;-58
2023/08/09 08:06:05;;;;;;;6.47;4.13;;;24.10;73.80;;;24.83;45.39;95218.50;5075612;28;20470;-58
2023/08/09 08:08:33;;;;;;;7.13;3.80;;;24.30;72.40;;;24.82;44.73;95219.53;5078296;28;20464;-59
2023/08/09 08:11:01;;;;;;;20.00;4.33;;;24.30;71.70;;;24.89;45.22;95219.47;5075024;28;20849;-56
2023/08/09 08:13:29;;;;;;;6.13;4.00;;;24.30;71.30;;;25.04;45.08;95206.50;5079568;28;20538;-60
2023/08/09 08:15:57;;;;;;;7.00;3.73;;;24.40;71.50;;;25.29;44.76;95211.03;5072231;28;20981;-59
2023/08/09 08:18:25;;;;;;;4.27;3.97;;;24.60;70.90;;;25.56;44.02;95210.72;5077788;28;20969;-60
2023/08/09 08:20:53;;;;;;;5.70;3.80;;;24.90;70.70;;;25.81;44.12;95212.50;5073078;28;20563;-60
2023/08/09 08:23:20;;;;;;;6.17;4.40;;;25.10;70.50;;;25.92;43.64;95219.84;5075994;28;20884;-58
2023/08/09 08:25:47;;;;;;;4.00;3.70;;;25.30;69.30;;;26.07;43.26;95209.50;5077303;28;20469;-60
2023/08/09 08:28:14;;;;;;;4.43;3.87;;;25.40;68.70;;;26.31;43.55;95204.19;5077249;28;20445;-61
2023/08/09 08:30:41;;;;;;;4.77;4.37;;;25.60;68.80;;;26.43;42.40;95210.44;5076168;28;20500;-57
2023/08/09 08:33:10;;;;;;;5.20;3.50;;;25.80;67.80;;;26.53;42.26;95207.16;5076660;28;20831;-60
2023/08/09 08:35:43;;;;;;;8.10;4.23;;;25.90;67.30;;;26.67;42.23;95199.72;5077984;28;20473;-61
2023/08/09 08:38:10;;;;;;;4.90;3.00;;;26.00;66.60;;;26.77;41.81;95189.16;5074944;28;20536;-56
2023/08/09 08:40:38;;;;;;;5.83;3.33;;;26.10;66.10;;;27.04;42.28;95194.09;5078578;28;20489;-62
2023/08/09 08:43:08;;;;;;;4.80;2.87;;;26.40;66.30;;;27.32;41.04;95195.28;5076333;28;20465;-61
2023/08/09 08:45:38;;;;;;;5.00;3.50;;;26.60;64.60;;;27.56;41.33;95187.97;5079233;28;20470;-60
2023/08/09 08:48:07;;;;;;;2.83;2.63;;;26.90;65.10;;;27.66;40.31;95188.16;5077732;28;21377;-60
2023/08/09 08:50:38;;;;;;;8.50;2.47;;;27.00;62.30;;;27.69;40.28;95184.97;5078741;28;20532;-59
2023/08/09 08:53:06;;;;;;;2.43;2.30;;;27.10;62.70;;;27.71;40.07;95174.72;5076188;28;20539;-61
2023/08/09 08:55:33;;;;;;;2.80;2.23;;;27.10;62.30;;;27.73;40.07;95179.91;5081882;28;20563;-59
2023/08/09 08:58:01;;;;;;;8.60;6.00;;;27.10;61.70;;;27.73;39.62;95167.22;5078752;28;20529;-61
2023/08/09 09:00:28;;;;;;;7.77;4.63;;;27.20;61.50;;;27.83;40.03;95163.91;5077320;28;20529;-60
2023/08/09 09:02:56;;;;;;;6.27;2.47;;;27.20;61.90;;;28.02;40.11;95161.84;5075966;28;20504;-65
2023/08/09 09:05:24;;;;;;;13.20;6.27;;;27.40;61.60;;;28.20;39.67;95160.00;5074252;28;20488;-60
2023/08/09 09:07:56;;;;;;;21.23;4.20;;;27.60;60.80;;;28.38;38.64;95156.25;5075282;28;20458;-56
2023/08/09 09:10:24;;;;;;;48.07;20.37;;;27.70;60.40;;;28.60;38.66;95159.09;5073388;28;20541;-59
2023/08/09 09:12:53;;;;;;;43.13;18.73;;;27.90;59.90;;;28.78;38.15;95158.00;5076051;28;20442;-58
2023/08/09 09:15:20;;;;;;;4.00;2.77;;;28.10;59.20;;;28.94;38.34;95162.59;5069662;28;20446;-56
2023/08/09 09:17:48;;;;;;;5.67;3.03;;;28.30;58.80;;;29.03;38.03;95154.84;5077145;28;20751;-57
2023/08/09 09:20:18;;;;;;;5.63;2.90;;;28.40;58.20;;;29.09;38.24;95142.19;5080376;28;21197;-57
2023/08/09 09:22:46;;;;;;;7.33;2.73;;;28.50;58.20;;;29.11;37.54;95151.72;5085043;28;20610;-60
2023/08/09 09:25:17;;;;;;;1.70;1.60;;;28.50;58.40;;;29.09;37.62;95143.00;5079340;28;20489;-59
2023/08/09 09:27:47;;;;;;;118.83;47.50;;;28.50;57.20;;;29.05;37.94;95136.47;5081807;28;20575;-59
2023/08/09 09:30:15;;;;;;;30.23;13.50;;;28.50;58.00;;;29.07;37.22;95136.22;5082675;28;20582;-60
2023/08/09 09:32:58;;;;;;;2.77;2.53;;;28.40;57.50;;;29.12;36.62;95126.25;5078228;28;20521;-59
2023/08/09 09:35:27;;;;;;;2.47;2.23;;;28.50;56.20;;;29.10;37.39;95128.41;5080910;28;20473;-58
2023/08/09 09:37:55;;;;;;;1.70;1.60;;;28.50;57.00;;;29.03;37.52;95129.66;5078948;28;20512;-59
2023/08/09 09:40:25;;;;;;;2.83;2.00;;;28.50;57.00;;;29.04;37.16;95125.88;5082409;28;20534;-59
2023/08/09 09:42:54;;;;;;;2.07;1.87;;;28.50;57.30;;;29.10;37.05;95122.16;5081106;28;20549;-57
2023/08/09 09:45:24;;;;;;;5.53;3.80;;;28.50;56.90;;;29.09;36.86;95121.34;5077545;28;20501;-60
2023/08/09 09:47:52;;;;;;;2.27;2.07;;;28.50;56.90;;;29.05;36.86;95108.53;5080506;28;20927;-60
2023/08/09 09:50:22;;;;;;;11.27;6.30;;;28.50;56.30;;;29.09;37.47;95102.38;5076674;28;20567;-59
2023/08/09 09:52:52;;;;;;;5.27;2.03;;;28.50;56.80;;;29.17;36.85;95109.25;5079884;28;20198;-58
2023/08/09 09:55:20;;;;;;;2.30;2.00;;;28.50;57.10;;;29.17;36.53;95100.31;5079311;28;20220;-59
2023/08/09 09:57:50;;;;;;;1.93;1.40;;;28.60;56.50;;;29.16;36.36;95099.50;5081125;28;20531;-59
2023/08/09 10:00:20;;;;;;;2.40;1.80;;;28.50;56.10;;;29.10;37.00;95104.03;5078266;28;20227;-58
2023/08/09 10:02:49;;;;;;;3.50;2.27;;;28.50;56.10;;;29.12;36.18;95098.34;5076490;28;20207;-57
2023/08/09 10:05:19;;;;;;;2.97;2.03;;;28.50;55.40;;;29.15;36.93;95101.38;5080437;28;20282;-60
2023/08/09 10:07:47;;;;;;;2.73;2.53;;;28.50;56.30;;;29.17;35.40;95101.13;5082305;28;20203;-57
2023/08/09 10:10:16;;;;;;;7.17;1.53;;;28.60;55.00;;;29.19;37.06;95093.59;5079912;28;20626;-57
2023/08/09 10:12:48;;;;;;;4.47;2.50;;;28.60;56.00;;;29.16;36.36;95091.38;5079170;28;20203;-58
2023/08/09 10:15:18;;;;;;;4.50;2.30;;;28.50;55.40;;;29.15;36.17;95093.25;5077609;28;20254;-58
2023/08/09 10:17:45;;;;;;;3.10;2.87;;;28.50;54.50;;;29.13;36.78;95089.97;5081183;28;20215;-59
2023/08/09 10:20:13;;;;;;;1.90;1.80;;;28.50;55.40;;;29.15;36.43;95081.59;5077988;28;20983;-59